Aviation Digital Data Service (ADDS)

Output produced by METARs form (1719 UTC 13 August 2020)
found at http://www.aviationweather.gov/metar/data/
 
METAR text: KYIP 131653Z 04007KT 10SM CLR 31/15 A3013 RMK AO2 SLP196 T03110150
Conditions at: KYIP (DETROIT/WILLOW , MI, US) observed 1653 UTC 13 August 2020
Temperature: 31.1°C (88°F)
Dewpoint: 15.0°C (59°F) [RH = 38%]
Pressure (altimeter): 30.13 inches Hg (1020.4 mb)
[Sea-level pressure: 1019.6 mb]
Winds: from the NE (40 degrees) at 8 MPH (7 knots; 3.6 m/s)
Visibility: 10 or more miles (16+ km)
Ceiling: at least 12,000 feet AGL
Clouds: sky clear below 12,000 feet AGL
Weather: no significant weather observed at this time

METAR text: KYIP 131553Z 05007KT 10SM CLR 29/17 A3014 RMK AO2 SLP199 T02940167
Conditions at: KYIP (DETROIT/WILLOW , MI, US) observed 1553 UTC 13 August 2020
Temperature: 29.4°C (85°F)
Dewpoint: 16.7°C (62°F) [RH = 46%]
Pressure (altimeter): 30.14 inches Hg (1020.7 mb)
[Sea-level pressure: 1019.9 mb]
Winds: from the NE (50 degrees) at 8 MPH (7 knots; 3.6 m/s)
Visibility: 10 or more miles (16+ km)
Ceiling: at least 12,000 feet AGL
Clouds: sky clear below 12,000 feet AGL
Weather: no significant weather observed at this time

Forecast for: KYIP (DETROIT/WILLOW , MI, US)
Text: KYIP 131132Z 1312/1412 04005KT P6SM SCT250
Forecast period: 1200 to 2000 UTC 13 August 2020
Forecast type: FROM: standard forecast or significant change
Winds: from the NE (40 degrees) at 6 MPH (5 knots; 2.6 m/s)
Visibility: 6 or more miles (10+ km)
Ceiling: at least 12,000 feet AGL
Clouds: scattered clouds at 25000 feet AGL
Weather: no significant weather forecast for this period
Text: FM132000 10005KT P6SM BKN250
Forecast period: 2000 UTC 13 August 2020 to 0200 UTC 14 August 2020
Forecast type: FROM: standard forecast or significant change
Winds: from the E (100 degrees) at 6 MPH (5 knots; 2.6 m/s)
Visibility: 6 or more miles (10+ km)
Ceiling: 25000 feet AGL
Clouds: broken clouds at 25000 feet AGL
Weather: no significant weather forecast for this period
Text: FM140200 04005KT P6SM SCT250
Forecast period: 0200 to 1200 UTC 14 August 2020
Forecast type: FROM: standard forecast or significant change
Winds: from the NE (40 degrees) at 6 MPH (5 knots; 2.6 m/s)
Visibility: 6 or more miles (10+ km)
Ceiling: at least 12,000 feet AGL
Clouds: scattered clouds at 25000 feet AGL
Weather: no significant weather forecast for this period